Time;durP1;ratioP1;P1;durP2;ratioP2;P2;SDS_P1;SDS_P2;PMS_P1;PMS_P2;Temp;Humidity;BMP_temperature;BMP_pressure;BME280_temperature;BME280_humidity;BME280_pressure;Samples;Min_cycle;Max_cycle;Signal;HPM_P1;HPM_P2
2022/03/17 00:02:08;;;;;;;33.13;20.17;;;2.40;96.30;;;;;;4930977;28;20187;-79
2022/03/17 00:04:34;;;;;;;31.67;22.20;;;2.50;96.30;;;;;;4947600;29;20713;-79
2022/03/17 00:07:01;;;;;;;46.67;29.43;;;2.60;96.30;;;;;;4957731;29;20171;-79
2022/03/17 00:09:26;;;;;;;32.70;21.77;;;3.20;96.30;;;;;;4940278;29;20179;-80
2022/03/17 00:11:52;;;;;;;52.67;35.70;;;3.70;96.30;;;;;;4940117;29;20968;-80
2022/03/17 00:14:19;;;;;;;42.87;28.53;;;3.80;96.30;;;;;;4940222;29;20557;-79
2022/03/17 00:16:45;;;;;;;39.17;31.00;;;3.80;96.30;;;;;;4957587;29;20945;-79
2022/03/17 00:19:10;;;;;;;48.23;31.90;;;3.90;96.30;;;;;;4939400;29;20458;-80
2022/03/17 00:21:38;;;;;;;39.40;28.93;;;3.90;96.30;;;;;;4957186;28;20194;-79
2022/03/17 00:24:07;;;;;;;42.47;29.70;;;3.90;96.30;;;;;;4939965;29;20210;-79
2022/03/17 00:26:33;;;;;;;44.47;30.60;;;4.00;96.30;;;;;;4956755;29;20415;-79
2022/03/17 00:28:58;;;;;;;42.77;28.67;;;4.10;96.30;;;;;;4956326;29;20455;-80
2022/03/17 00:31:24;;;;;;;35.87;25.53;;;4.20;96.30;;;;;;4956161;28;20450;-79
2022/03/17 00:33:49;;;;;;;43.60;29.07;;;4.40;96.30;;;;;;4938000;29;20183;-78
2022/03/17 00:36:16;;;;;;;43.87;26.73;;;4.50;96.30;;;;;;4938524;29;20183;-79
2022/03/17 00:38:41;;;;;;;36.20;25.60;;;4.60;96.30;;;;;;4938932;29;20234;-78
2022/03/17 00:41:07;;;;;;;41.13;29.10;;;4.70;96.30;;;;;;4939004;29;20434;-78
2022/03/17 00:43:34;;;;;;;39.17;24.70;;;4.80;96.30;;;;;;4956094;29;20664;-79
2022/03/17 00:45:59;;;;;;;43.20;30.33;;;4.80;96.30;;;;;;4938876;29;20210;-79
2022/03/17 00:48:25;;;;;;;36.70;29.10;;;4.80;96.30;;;;;;4938883;29;20476;-79
2022/03/17 00:50:50;;;;;;;39.63;29.10;;;4.70;96.30;;;;;;4939209;29;20743;-78
2022/03/17 00:53:16;;;;;;;43.77;30.20;;;4.70;96.30;;;;;;4939178;29;20187;-79
2022/03/17 00:55:41;;;;;;;29.63;20.70;;;4.70;96.30;;;;;;4956160;29;20179;-79
2022/03/17 00:58:07;;;;;;;42.73;29.87;;;4.70;96.30;;;;;;4938446;29;20174;-79
2022/03/17 05:01:21;;;;;;;40.23;28.60;;;4.80;96.30;;;;;;5500613;23;20488;-77
2022/03/17 05:03:46;;;;;;;38.10;27.10;;;4.80;96.30;;;;;;4928673;29;20428;-77
2022/03/17 05:06:13;;;;;;;37.53;28.53;;;4.80;96.30;;;;;;4916886;29;20175;-77
2022/03/17 05:08:40;;;;;;;38.03;28.87;;;4.80;96.30;;;;;;4934526;29;20245;-77
2022/03/17 05:11:07;;;;;;;40.83;29.83;;;4.80;96.30;;;;;;4926928;29;20448;-77
2022/03/17 05:13:34;;;;;;;41.53;26.70;;;4.70;96.30;;;;;;4912479;29;20422;-76
2022/03/17 05:15:59;;;;;;;44.77;28.80;;;4.70;96.30;;;;;;4905191;29;20436;-75
2022/03/17 05:18:25;;;;;;;32.13;21.57;;;4.80;96.30;;;;;;4895757;29;20939;-75
2022/03/17 05:46:44;;;;;;;38.60;28.40;;;4.70;96.30;;;;;;4280237;23;20593;-73
2022/03/17 05:49:10;;;;;;;43.40;28.47;;;4.70;96.30;;;;;;4940307;29;20587;-74
2022/03/17 05:51:35;;;;;;;43.10;30.90;;;4.80;96.30;;;;;;4922987;29;20207;-77
2022/03/17 05:54:01;;;;;;;41.90;28.73;;;4.80;96.30;;;;;;4938036;29;20180;-74
2022/03/17 05:56:26;;;;;;;60.87;34.00;;;4.80;96.30;;;;;;4938620;29;20182;-74
2022/03/17 05:58:52;;;;;;;43.70;29.37;;;4.80;96.30;;;;;;4937493;29;20207;-74
2022/03/17 06:31:42;;;;;;;40.30;28.43;;;5.30;96.30;;;;;;4983069;23;20512;-75
2022/03/17 06:34:08;;;;;;;49.47;29.43;;;5.40;96.30;;;;;;4975367;28;20441;-76
2022/03/17 06:36:33;;;;;;;43.67;27.67;;;5.50;96.30;;;;;;4975191;28;20418;-76
2022/03/17 06:38:59;;;;;;;45.30;29.80;;;5.60;96.30;;;;;;4974551;28;20469;-77
2022/03/17 06:41:24;;;;;;;46.23;33.77;;;5.60;96.30;;;;;;4963877;28;20265;-77
2022/03/17 06:43:50;;;;;;;47.77;31.80;;;5.70;96.30;;;;;;4917318;29;20219;-77
2022/03/17 06:46:15;;;;;;;54.97;35.03;;;5.80;96.30;;;;;;4945588;29;20183;-76
2022/03/17 06:48:41;;;;;;;62.13;38.00;;;5.70;96.30;;;;;;4954104;29;20214;-77
2022/03/17 06:51:06;;;;;;;56.90;37.77;;;5.90;96.30;;;;;;4955321;29;20541;-78
2022/03/17 06:53:32;;;;;;;52.20;33.97;;;5.90;96.30;;;;;;4955631;29;20599;-77
2022/03/17 06:55:58;;;;;;;39.57;27.37;;;5.90;96.30;;;;;;4938482;29;20189;-76
2022/03/17 06:58:24;;;;;;;45.23;32.70;;;6.00;96.30;;;;;;4937847;29;20434;-77
2022/03/17 07:00:50;;;;;;;39.50;29.90;;;6.10;96.30;;;;;;4938297;29;20195;-77
2022/03/17 07:03:15;;;;;;;43.23;31.97;;;6.10;96.30;;;;;;4955741;29;20429;-77
2022/03/17 07:05:41;;;;;;;41.03;31.23;;;6.20;96.30;;;;;;4955562;29;20175;-77
2022/03/17 07:08:06;;;;;;;40.70;29.93;;;6.20;96.30;;;;;;4955273;29;20174;-76
2022/03/17 07:10:32;;;;;;;42.63;29.47;;;6.30;96.30;;;;;;4949982;29;20238;-77
2022/03/17 07:12:57;;;;;;;49.40;30.43;;;6.30;96.30;;;;;;4943720;28;20479;-77
2022/03/17 07:15:23;;;;;;;37.10;26.00;;;6.30;96.30;;;;;;4920344;29;20176;-77
2022/03/17 07:17:49;;;;;;;37.20;26.97;;;6.40;96.30;;;;;;4935702;29;20179;-77
2022/03/17 07:20:16;;;;;;;40.23;28.60;;;6.40;96.30;;;;;;4934525;29;20206;-78
2022/03/17 07:22:43;;;;;;;36.17;23.90;;;6.50;96.30;;;;;;4933359;29;20198;-78
2022/03/17 07:25:11;;;;;;;35.90;27.27;;;6.50;96.30;;;;;;4939967;29;20419;-78
2022/03/17 07:27:46;;;;;;;39.10;26.70;;;6.60;96.30;;;;;;4936285;29;20419;-78
2022/03/17 07:30:19;;;;;;;37.30;26.40;;;6.70;96.30;;;;;;4937195;29;20426;-78
2022/03/17 07:32:48;;;;;;;42.43;28.43;;;6.70;96.30;;;;;;4945351;29;20438;-78
2022/03/17 07:35:14;;;;;;;37.83;27.70;;;6.80;96.30;;;;;;4954901;29;20782;-77
2022/03/17 07:37:40;;;;;;;39.70;29.90;;;6.80;96.30;;;;;;4941596;29;20499;-78
2022/03/17 07:40:07;;;;;;;37.70;27.70;;;6.90;96.30;;;;;;4937701;29;20470;-77
2022/03/17 07:42:32;;;;;;;31.90;22.83;;;7.00;96.30;;;;;;4954351;29;20533;-77
2022/03/17 07:44:58;;;;;;;44.60;29.43;;;7.00;96.30;;;;;;4954850;29;20568;-77
2022/03/17 07:47:23;;;;;;;38.57;27.00;;;7.10;96.30;;;;;;4925619;29;20180;-77
2022/03/17 07:49:50;;;;;;;41.27;26.80;;;7.20;96.30;;;;;;4951655;29;20191;-77
2022/03/17 07:52:15;;;;;;;32.07;23.77;;;7.30;96.30;;;;;;4954429;29;20524;-78
2022/03/17 07:54:41;;;;;;;32.17;24.80;;;7.50;96.30;;;;;;4941098;29;20436;-76
2022/03/17 07:57:07;;;;;;;32.43;22.97;;;7.60;96.30;;;;;;4935283;29;20186;-76
2022/03/17 07:59:33;;;;;;;35.83;25.73;;;7.70;96.30;;;;;;4936149;29;20264;-77
2022/03/17 08:01:59;;;;;;;32.07;25.17;;;7.70;96.30;;;;;;4954390;29;20843;-76
2022/03/17 08:04:25;;;;;;;46.50;25.87;;;7.70;96.30;;;;;;4937350;29;20269;-77
2022/03/17 08:06:53;;;;;;;34.83;25.20;;;7.80;96.30;;;;;;4937129;29;20206;-76
2022/03/17 08:09:19;;;;;;;35.40;23.70;;;7.90;96.30;;;;;;4953523;28;20563;-76
2022/03/17 08:11:48;;;;;;;29.03;21.87;;;7.90;96.30;;;;;;4954048;29;20454;-77
2022/03/17 08:14:14;;;;;;;32.27;20.80;;;7.80;96.30;;;;;;4954322;29;20554;-76
2022/03/17 08:16:44;;;;;;;32.80;25.30;;;7.90;96.30;;;;;;4951562;29;20506;-78
2022/03/17 08:19:11;;;;;;;37.73;26.23;;;7.80;96.30;;;;;;4927789;29;20466;-77
2022/03/17 08:21:37;;;;;;;33.90;24.60;;;7.90;96.30;;;;;;4927048;29;20446;-76
2022/03/17 08:24:02;;;;;;;35.93;25.63;;;8.00;96.30;;;;;;4954079;29;20399;-76
2022/03/17 08:26:28;;;;;;;45.40;27.43;;;8.10;96.30;;;;;;4954071;29;20421;-76
2022/03/17 08:28:53;;;;;;;28.50;21.30;;;8.10;96.30;;;;;;4936073;29;20171;-76
2022/03/17 08:31:19;;;;;;;36.33;26.10;;;8.10;96.30;;;;;;4954170;29;20229;-76
2022/03/17 08:33:44;;;;;;;35.03;23.30;;;8.20;96.30;;;;;;4954021;29;20266;-76
2022/03/17 08:36:10;;;;;;;31.27;22.40;;;8.20;96.30;;;;;;4954073;29;20613;-78
2022/03/17 08:38:35;;;;;;;33.43;24.73;;;8.30;96.30;;;;;;4953814;29;20191;-77
2022/03/17 08:41:01;;;;;;;35.30;21.47;;;8.20;96.30;;;;;;4953927;29;20199;-76
2022/03/17 08:43:26;;;;;;;39.40;27.53;;;8.50;96.30;;;;;;4953950;29;20183;-76
2022/03/17 08:51:25;;;;;;;44.27;27.73;;;8.70;96.30;;;;;;4954673;29;20437;-77
2022/03/17 08:53:50;;;;;;;43.37;28.03;;;8.70;96.30;;;;;;4953303;29;20402;-79
2022/03/17 08:56:16;;;;;;;37.37;27.73;;;8.90;96.30;;;;;;4932950;29;20212;-79
2022/03/17 08:58:42;;;;;;;38.07;26.90;;;9.10;96.30;;;;;;4926687;29;20214;-79
2022/03/17 09:01:07;;;;;;;37.80;26.83;;;9.50;96.30;;;;;;4926966;29;20191;-78
2022/03/17 09:03:33;;;;;;;34.77;28.07;;;9.50;96.30;;;;;;4931584;29;20258;-79
2022/03/17 09:06:00;;;;;;;24.67;18.77;;;9.60;96.30;;;;;;4949696;29;20414;-79
2022/03/17 09:08:26;;;;;;;38.00;27.27;;;9.60;96.30;;;;;;4950499;29;20173;-79
2022/03/17 09:10:52;;;;;;;39.13;27.67;;;9.50;96.30;;;;;;4911357;29;20451;-79
2022/03/17 09:13:17;;;;;;;36.37;25.80;;;9.60;96.30;;;;;;4910434;29;20429;-79
2022/03/17 09:15:43;;;;;;;36.17;26.10;;;9.60;96.30;;;;;;4933300;29;20182;-79
2022/03/17 09:18:11;;;;;;;33.83;25.23;;;9.60;96.30;;;;;;4918716;29;20175;-79
2022/03/17 09:20:38;;;;;;;32.07;22.47;;;9.60;96.30;;;;;;4941393;29;20718;-78
2022/03/17 09:23:04;;;;;;;34.73;26.43;;;9.40;96.30;;;;;;4930157;29;20520;-79
2022/03/17 09:25:31;;;;;;;37.77;28.00;;;9.40;96.30;;;;;;4958592;29;20442;-79
2022/03/17 09:27:57;;;;;;;35.43;26.50;;;9.40;96.30;;;;;;4937849;29;20478;-79
2022/03/17 09:30:23;;;;;;;44.00;28.30;;;9.40;96.30;;;;;;4940121;29;20420;-80
2022/03/17 09:32:52;;;;;;;45.90;28.10;;;9.60;96.30;;;;;;4941879;29;20433;-79
2022/03/17 09:35:17;;;;;;;36.97;27.63;;;9.60;96.30;;;;;;4958962;29;20793;-79
2022/03/17 09:37:44;;;;;;;34.47;22.83;;;9.70;96.30;;;;;;4922503;29;21234;-80
2022/03/17 09:40:11;;;;;;;31.93;22.87;;;9.60;96.30;;;;;;4939472;29;20467;-78
2022/03/17 09:42:38;;;;;;;35.17;21.40;;;9.30;96.30;;;;;;4933413;29;20210;-78
2022/03/17 09:45:06;;;;;;;34.70;26.63;;;9.30;96.30;;;;;;4937843;29;20440;-77
2022/03/17 09:47:41;;;;;;;38.77;26.27;;;9.30;96.30;;;;;;4937097;29;20922;-79
2022/03/17 09:50:08;;;;;;;36.33;24.93;;;9.40;96.30;;;;;;4939923;29;20419;-79
2022/03/17 09:52:39;;;;;;;34.90;25.00;;;9.30;96.30;;;;;;4923127;29;20447;-78
2022/03/17 09:55:07;;;;;;;33.20;22.97;;;9.40;96.30;;;;;;4923049;29;20427;-79
2022/03/17 09:57:33;;;;;;;29.73;23.87;;;9.50;96.30;;;;;;4922207;29;20423;-78
2022/03/17 09:59:58;;;;;;;35.53;24.70;;;9.50;96.30;;;;;;4939718;29;20469;-78
2022/03/17 10:02:25;;;;;;;31.93;23.77;;;9.50;96.30;;;;;;4954748;28;20207;-79
2022/03/17 10:04:51;;;;;;;29.40;20.53;;;9.40;96.30;;;;;;4958290;28;20262;-77
2022/03/17 10:07:18;;;;;;;33.10;24.33;;;9.50;96.30;;;;;;4943583;29;20790;-79
2022/03/17 10:09:45;;;;;;;32.27;23.40;;;9.50;96.30;;;;;;4920934;29;20901;-78
2022/03/17 10:12:13;;;;;;;40.57;24.40;;;9.60;96.30;;;;;;4934969;29;20462;-78
2022/03/17 10:14:40;;;;;;;31.70;22.30;;;9.80;96.30;;;;;;4935008;29;20433;-79
2022/03/17 10:17:28;;;;;;;25.60;18.63;;;9.80;96.30;;;;;;4941432;29;20434;-78
2022/03/17 10:20:16;;;;;;;31.37;21.47;;;9.90;96.30;;;;;;4929367;29;20553;-75
2022/03/17 10:22:42;;;;;;;29.10;22.60;;;9.70;96.30;;;;;;4948541;29;20415;-75
2022/03/17 10:25:08;;;;;;;40.03;23.03;;;9.70;96.30;;;;;;4937778;29;20423;-76
2022/03/17 10:27:40;;;;;;;32.30;23.60;;;9.80;96.30;;;;;;4937348;29;20591;-75
2022/03/17 10:30:07;;;;;;;30.70;21.23;;;9.70;96.30;;;;;;4937537;29;20258;-76
2022/03/17 10:32:33;;;;;;;24.50;17.63;;;9.90;96.30;;;;;;4936529;29;20440;-76
2022/03/17 10:34:58;;;;;;;30.33;18.13;;;9.70;96.30;;;;;;4937449;29;20494;-75
2022/03/17 10:37:25;;;;;;;30.33;22.70;;;9.60;96.30;;;;;;4944890;29;20430;-78
2022/03/17 10:39:55;;;;;;;31.67;20.20;;;9.80;96.30;;;;;;4956089;29;20669;-75
2022/03/17 10:42:24;;;;;;;29.70;22.80;;;9.70;96.30;;;;;;4950066;28;20518;-75
2022/03/17 10:44:56;;;;;;;29.40;21.20;;;9.80;96.30;;;;;;4937290;29;20471;-78
2022/03/17 10:47:30;;;;;;;30.27;21.43;;;9.70;96.30;;;;;;4911835;29;20442;-78
2022/03/17 10:50:01;;;;;;;32.87;21.40;;;9.90;96.00;;;;;;4928401;29;20411;-77
2022/03/17 10:52:53;;;;;;;32.00;20.83;;;10.10;96.30;;;;;;4931511;29;20446;-77
2022/03/17 10:55:35;;;;;;;32.07;20.50;;;10.20;95.10;;;;;;4944820;29;20822;-79
2022/03/17 10:58:16;;;;;;;34.13;20.17;;;10.30;94.00;;;;;;4955769;29;20815;-77
2022/03/17 11:00:51;;;;;;;29.10;20.77;;;10.50;93.60;;;;;;4956223;28;20466;-75
2022/03/17 11:03:18;;;;;;;28.70;19.40;;;10.50;92.50;;;;;;4956617;29;20394;-76
2022/03/17 11:05:44;;;;;;;29.13;21.40;;;10.60;91.60;;;;;;4938883;29;20426;-75
2022/03/17 11:08:10;;;;;;;31.33;19.53;;;10.40;92.40;;;;;;4955939;29;20804;-75
2022/03/17 11:10:40;;;;;;;26.77;19.10;;;10.50;92.50;;;;;;4938657;29;21025;-75
2022/03/17 11:13:11;;;;;;;25.17;19.40;;;10.70;92.50;;;;;;4956011;29;20441;-75
2022/03/17 11:15:43;;;;;;;30.73;19.47;;;10.60;90.30;;;;;;4947576;29;20549;-78
2022/03/17 11:18:20;;;;;;;27.90;17.67;;;10.90;91.70;;;;;;4962847;29;20434;-78
2022/03/17 11:20:46;;;;;;;34.23;17.10;;;10.80;90.10;;;;;;4959946;29;20921;-77
2022/03/17 11:23:18;;;;;;;26.70;17.80;;;10.90;89.20;;;;;;4935641;29;20422;-77
2022/03/17 11:25:53;;;;;;;19.87;15.67;;;11.00;89.70;;;;;;4959783;29;20446;-78
2022/03/17 11:28:30;;;;;;;25.17;18.27;;;11.20;88.10;;;;;;4934878;29;20422;-78
2022/03/17 11:31:00;;;;;;;26.57;20.53;;;11.10;88.80;;;;;;4925620;29;20478;-78
2022/03/17 11:33:33;;;;;;;25.90;18.10;;;11.10;89.60;;;;;;4919954;29;20446;-70
2022/03/17 11:36:02;;;;;;;27.73;20.60;;;11.20;89.70;;;;;;4940532;29;20419;-68
2022/03/17 11:38:36;;;;;;;22.67;15.37;;;11.40;90.40;;;;;;4940613;29;20955;-69
2022/03/17 11:41:02;;;;;;;24.30;17.50;;;11.50;89.30;;;;;;4939534;29;20441;-68
2022/03/17 11:43:46;;;;;;;23.57;17.17;;;11.50;89.50;;;;;;4941398;29;20431;-69
2022/03/17 11:46:16;;;;;;;24.23;15.00;;;11.30;88.60;;;;;;4931532;29;20645;-69
2022/03/17 11:48:44;;;;;;;24.20;14.70;;;11.30;87.60;;;;;;4944377;29;20462;-69
2022/03/17 12:14:34;;;;;;;27.90;16.53;;;10.90;88.60;;;;;;5489364;23;20485;-68
2022/03/17 12:17:02;;;;;;;20.47;15.50;;;10.90;89.30;;;;;;4974087;28;20819;-68
2022/03/17 12:19:39;;;;;;;27.67;14.57;;;11.00;87.80;;;;;;4973282;28;20460;-69
2022/03/17 12:24:53;;;;;;;23.37;13.27;;;11.20;84.40;;;;;;5901327;23;20487;-69
2022/03/17 12:27:35;;;;;;;14.47;10.30;;;11.20;85.30;;;;;;4935024;29;20430;-68
2022/03/17 12:30:08;;;;;;;18.90;13.97;;;11.00;84.70;;;;;;4935029;29;20448;-69
2022/03/17 12:32:40;;;;;;;27.87;18.03;;;11.00;86.00;;;;;;4910186;29;20471;-67
2022/03/17 12:35:09;;;;;;;27.33;17.43;;;11.00;89.00;;;;;;4897156;29;20922;-67
2022/03/17 12:37:36;;;;;;;21.87;16.30;;;10.90;89.20;;;;;;4880144;29;20417;-68
2022/03/17 12:40:07;;;;;;;26.00;17.60;;;10.70;88.10;;;;;;4897100;29;20457;-67
2022/03/17 12:42:39;;;;;;;24.20;16.20;;;10.80;88.40;;;;;;4897151;29;20438;-68
2022/03/17 12:45:09;;;;;;;26.70;17.53;;;10.80;87.80;;;;;;4897151;29;20410;-69
2022/03/17 12:47:39;;;;;;;25.70;17.97;;;10.90;89.20;;;;;;4896905;29;20405;-68
2022/03/17 12:50:06;;;;;;;26.63;17.70;;;11.10;89.20;;;;;;4896942;29;20460;-67
2022/03/17 12:52:33;;;;;;;19.30;16.37;;;10.70;90.10;;;;;;4897041;29;20448;-68
2022/03/17 12:55:01;;;;;;;28.07;18.50;;;10.70;88.60;;;;;;4896575;29;20822;-70
2022/03/17 12:57:29;;;;;;;23.43;17.67;;;10.60;90.00;;;;;;4896851;29;21181;-74
2022/03/17 12:59:55;;;;;;;25.73;18.23;;;10.60;90.40;;;;;;4896940;29;20456;-71
2022/03/17 13:02:22;;;;;;;21.17;17.13;;;10.80;90.40;;;;;;4896867;29;20441;-70
2022/03/17 13:04:59;;;;;;;25.70;17.13;;;10.80;89.00;;;;;;4896905;29;20492;-68
2022/03/17 13:07:26;;;;;;;20.83;16.97;;;10.80;89.70;;;;;;4906022;29;20448;-70
2022/03/17 13:09:52;;;;;;;21.10;16.33;;;10.70;89.80;;;;;;4892145;29;20425;-69
2022/03/17 13:15:15;;;;;;;23.10;18.00;;;10.90;90.00;;;;;;4912441;29;20729;-70
2022/03/17 13:17:49;;;;;;;26.27;18.00;;;11.00;89.90;;;;;;4885153;29;20514;-70
2022/03/17 13:20:15;;;;;;;23.10;16.47;;;10.90;89.70;;;;;;4900525;29;20460;-68
2022/03/17 13:22:41;;;;;;;24.40;15.73;;;10.90;88.90;;;;;;4914747;29;20420;-68
2022/03/17 13:25:10;;;;;;;21.27;15.43;;;10.70;89.00;;;;;;4894491;29;20726;-67
2022/03/17 13:27:44;;;;;;;22.13;16.43;;;10.70;89.40;;;;;;4915672;29;20412;-76
2022/03/17 13:30:15;;;;;;;21.80;16.10;;;10.70;90.00;;;;;;4912890;29;20800;-79
2022/03/17 13:32:43;;;;;;;24.03;17.53;;;10.80;89.40;;;;;;4914973;29;20451;-76
2022/03/17 13:35:13;;;;;;;23.80;15.50;;;10.80;90.90;;;;;;4912313;29;20448;-76
2022/03/17 13:37:42;;;;;;;24.47;16.23;;;10.90;88.40;;;;;;4896847;29;20402;-76
2022/03/17 13:40:11;;;;;;;21.20;14.90;;;11.00;89.00;;;;;;4880243;29;20950;-76
2022/03/17 13:42:36;;;;;;;19.77;14.80;;;10.70;88.20;;;;;;4905829;29;20428;-79
2022/03/17 13:45:03;;;;;;;24.93;15.13;;;10.70;87.90;;;;;;4898453;29;20867;-76
2022/03/17 13:47:30;;;;;;;18.93;14.20;;;10.80;88.60;;;;;;4896798;29;20372;-76
2022/03/17 13:50:28;;;;;;;30.33;14.33;;;10.80;87.80;;;;;;4896789;29;20754;-76
2022/03/17 13:52:59;;;;;;;30.97;13.60;;;10.90;87.80;;;;;;4883726;29;20424;-76
2022/03/17 13:55:34;;;;;;;26.50;13.50;;;11.00;86.70;;;;;;4915649;29;20397;-77
2022/03/17 13:58:26;;;;;;;17.63;12.53;;;11.00;86.80;;;;;;4898125;29;20419;-76
2022/03/17 14:00:55;;;;;;;18.87;13.37;;;10.90;86.80;;;;;;4915780;29;20984;-76
2022/03/17 14:03:32;;;;;;;21.57;13.60;;;10.80;86.80;;;;;;4907905;29;20437;-76
2022/03/17 14:05:59;;;;;;;20.33;14.47;;;10.90;86.70;;;;;;4915017;29;21045;-76
2022/03/17 14:08:25;;;;;;;22.30;14.17;;;11.10;86.80;;;;;;4918558;29;20953;-76
2022/03/17 14:10:51;;;;;;;16.90;12.50;;;11.30;86.00;;;;;;4919094;29;20436;-76
2022/03/17 14:13:17;;;;;;;18.20;13.47;;;11.40;85.80;;;;;;4919561;29;20839;-76
2022/03/17 14:15:43;;;;;;;18.40;14.30;;;11.30;87.10;;;;;;4919134;29;20647;-76
2022/03/17 14:18:10;;;;;;;16.77;14.10;;;11.50;85.90;;;;;;4914518;29;20430;-76
2022/03/17 14:20:35;;;;;;;23.60;14.60;;;11.50;85.80;;;;;;4904627;29;20208;-75
2022/03/17 14:25:45;;;;;;;21.27;13.40;;;11.40;86.40;;;;;;4908579;29;20307;-76
2022/03/17 14:28:10;;;;;;;20.73;14.20;;;11.50;86.00;;;;;;4911188;29;21504;-78
2022/03/17 14:30:36;;;;;;;26.40;13.80;;;11.60;86.20;;;;;;4918430;29;20210;-80
2022/03/17 14:33:02;;;;;;;19.17;14.40;;;11.80;86.60;;;;;;4911187;29;20184;-80
2022/03/17 14:35:27;;;;;;;30.13;15.03;;;11.70;87.50;;;;;;4913338;29;20827;-78
2022/03/17 14:37:53;;;;;;;20.40;15.40;;;11.60;86.10;;;;;;4918046;29;20188;-78
2022/03/17 14:40:18;;;;;;;28.50;21.50;;;11.50;86.70;;;;;;4916632;29;20236;-78
2022/03/17 14:42:44;;;;;;;20.80;16.67;;;11.40;87.10;;;;;;4918277;29;20177;-77
2022/03/17 14:45:10;;;;;;;22.37;16.00;;;11.20;89.40;;;;;;4915490;29;20772;-80
2022/03/17 14:47:35;;;;;;;23.20;16.27;;;11.00;88.30;;;;;;4916846;29;20192;-77
2022/03/17 14:50:01;;;;;;;23.33;16.67;;;11.00;90.50;;;;;;4917546;29;20554;-78
2022/03/17 14:52:26;;;;;;;23.10;15.70;;;11.10;90.70;;;;;;4918090;29;20337;-77
2022/03/17 14:54:52;;;;;;;22.70;16.63;;;11.00;88.90;;;;;;4892250;29;20724;-77
2022/03/17 14:57:20;;;;;;;23.60;17.00;;;11.00;89.40;;;;;;4916348;29;20271;-78
2022/03/17 14:59:46;;;;;;;27.53;19.30;;;11.00;90.60;;;;;;4899413;29;20242;-77
2022/03/17 15:02:13;;;;;;;27.57;18.20;;;11.10;89.20;;;;;;4907848;29;20493;-78
2022/03/17 15:04:38;;;;;;;26.93;18.17;;;11.00;89.50;;;;;;4903419;29;20180;-79
2022/03/17 15:07:05;;;;;;;25.97;17.20;;;11.00;90.60;;;;;;4904849;29;20427;-77
2022/03/17 15:09:31;;;;;;;25.87;17.60;;;11.00;92.00;;;;;;4910626;29;20188;-77
2022/03/17 15:11:56;;;;;;;26.73;20.07;;;11.10;92.80;;;;;;4900641;29;20822;-75
2022/03/17 15:14:22;;;;;;;32.77;19.87;;;10.90;93.30;;;;;;4913285;29;20225;-76
2022/03/17 15:16:48;;;;;;;27.97;20.80;;;10.80;95.90;;;;;;4915211;29;20192;-77
2022/03/17 15:19:13;;;;;;;33.80;22.83;;;10.70;94.60;;;;;;4905941;29;20201;-77
2022/03/17 15:21:39;;;;;;;30.53;19.90;;;10.50;94.60;;;;;;4898970;29;20205;-77
2022/03/17 15:24:05;;;;;;;37.07;24.63;;;10.50;96.30;;;;;;4898607;29;20228;-77
2022/03/17 15:26:30;;;;;;;48.53;34.03;;;10.50;94.50;;;;;;4906480;29;20220;-77
2022/03/17 15:31:41;;;;;;;36.93;24.63;;;10.50;94.80;;;;;;4910683;29;20224;-78
2022/03/17 15:34:06;;;;;;;30.23;22.47;;;10.30;96.30;;;;;;4891174;29;20441;-75
2022/03/17 15:36:32;;;;;;;32.30;22.83;;;10.20;96.30;;;;;;4921206;29;20520;-76
2022/03/17 15:38:58;;;;;;;31.67;22.77;;;10.10;96.30;;;;;;4899627;29;20208;-74
2022/03/17 15:41:26;;;;;;;39.50;23.63;;;10.00;96.30;;;;;;4895548;29;20224;-76
2022/03/17 15:43:52;;;;;;;28.53;22.37;;;10.00;96.30;;;;;;4898536;29;20556;-75
2022/03/17 15:46:18;;;;;;;32.50;20.87;;;10.10;96.30;;;;;;4898227;29;20444;-78
2022/03/17 15:48:44;;;;;;;29.73;22.37;;;10.00;96.30;;;;;;4900066;29;20632;-76
2022/03/17 15:51:10;;;;;;;28.93;21.73;;;10.00;96.30;;;;;;4910199;29;20451;-76
2022/03/17 15:53:35;;;;;;;26.73;22.00;;;10.00;96.30;;;;;;4930438;29;20187;-76
2022/03/17 15:56:01;;;;;;;29.97;22.13;;;9.90;96.30;;;;;;4898669;29;20177;-77
2022/03/17 15:58:27;;;;;;;32.47;21.57;;;9.90;96.30;;;;;;4903132;29;20252;-76
2022/03/17 16:00:52;;;;;;;28.70;21.87;;;9.90;96.30;;;;;;4894106;29;20208;-76
2022/03/17 16:03:19;;;;;;;54.83;28.07;;;9.90;96.30;;;;;;4905890;29;20173;-76
2022/03/17 16:05:45;;;;;;;30.60;21.80;;;9.80;96.30;;;;;;4902024;29;20268;-76
2022/03/17 16:08:11;;;;;;;29.13;22.20;;;9.70;96.30;;;;;;4928481;29;20961;-76
2022/03/17 16:16:07;;;;;;;49.80;35.03;;;9.60;96.30;;;;;;4905964;29;20969;-75
2022/03/17 16:18:32;;;;;;;38.73;26.30;;;9.50;96.30;;;;;;4908199;29;20428;-75
2022/03/17 16:20:59;;;;;;;32.73;23.97;;;9.50;96.30;;;;;;4916633;29;20464;-76
2022/03/17 16:23:25;;;;;;;33.63;24.30;;;9.40;96.30;;;;;;4916647;29;20258;-75
2022/03/17 16:25:52;;;;;;;37.03;23.93;;;9.40;96.30;;;;;;4916738;29;20460;-76
2022/03/17 16:28:19;;;;;;;36.93;27.57;;;9.30;96.30;;;;;;4916765;29;20891;-75
2022/03/17 16:30:45;;;;;;;32.90;24.87;;;9.30;96.30;;;;;;4915075;29;20432;-76
2022/03/17 16:33:12;;;;;;;32.67;24.43;;;9.20;96.30;;;;;;4916724;29;20511;-76
2022/03/17 16:35:44;;;;;;;35.20;24.23;;;9.20;96.30;;;;;;4916822;29;20416;-75
2022/03/17 16:38:10;;;;;;;43.47;23.83;;;9.10;96.30;;;;;;4916570;29;20550;-75
2022/03/17 16:40:36;;;;;;;44.30;33.77;;;9.00;96.30;;;;;;4915872;29;20476;-75
2022/03/17 16:43:02;;;;;;;36.17;26.87;;;9.00;96.30;;;;;;4897890;29;20413;-75
2022/03/17 16:45:32;;;;;;;31.07;22.50;;;8.90;96.30;;;;;;4881139;29;20181;-75
2022/03/17 16:48:01;;;;;;;47.13;31.87;;;8.80;96.30;;;;;;4897803;29;20223;-75
2022/03/17 16:50:28;;;;;;;43.80;24.13;;;8.70;96.30;;;;;;4898391;29;20489;-77
2022/03/17 16:52:54;;;;;;;37.70;24.57;;;8.70;96.30;;;;;;4898350;29;20413;-75
2022/03/17 16:55:22;;;;;;;35.80;23.93;;;8.70;96.30;;;;;;4900088;29;20957;-75
2022/03/17 16:57:48;;;;;;;33.13;22.83;;;8.70;96.30;;;;;;4916577;29;20203;-75
2022/03/17 17:00:14;;;;;;;32.33;22.57;;;8.60;96.30;;;;;;4915588;29;20471;-76
2022/03/17 17:02:39;;;;;;;39.93;23.83;;;8.60;96.30;;;;;;4900342;29;20943;-77
2022/03/17 17:05:06;;;;;;;32.80;22.60;;;8.50;96.30;;;;;;4901946;29;20195;-76
2022/03/17 17:07:33;;;;;;;29.17;23.10;;;8.40;96.30;;;;;;4919081;29;20187;-77
2022/03/17 17:09:59;;;;;;;33.10;23.70;;;8.30;96.30;;;;;;4920105;29;20421;-76
2022/03/17 17:12:26;;;;;;;29.73;23.57;;;8.10;96.30;;;;;;4919526;29;20814;-75
2022/03/17 17:14:53;;;;;;;32.23;23.87;;;8.00;96.30;;;;;;4903673;29;20263;-76
2022/03/17 17:17:20;;;;;;;34.37;24.33;;;8.00;96.30;;;;;;4921881;29;20452;-76
2022/03/17 17:19:45;;;;;;;34.57;23.33;;;7.90;96.30;;;;;;4905376;29;20681;-77
2022/03/17 17:22:11;;;;;;;36.83;24.10;;;7.80;96.30;;;;;;4898112;29;20556;-77
2022/03/17 17:32:52;;;;;;;41.30;24.67;;;7.60;96.30;;;;;;4907697;29;20448;-77
2022/03/17 17:35:18;;;;;;;29.13;23.67;;;7.40;96.30;;;;;;4889711;29;20429;-77
2022/03/17 17:37:43;;;;;;;33.17;24.50;;;7.30;96.30;;;;;;4905931;29;20188;-78
2022/03/17 17:40:09;;;;;;;33.77;24.30;;;7.30;96.30;;;;;;4925827;29;20465;-79
2022/03/17 17:42:38;;;;;;;35.83;24.80;;;7.20;96.30;;;;;;4917172;29;20263;-77
2022/03/17 17:45:05;;;;;;;38.87;25.30;;;7.20;96.30;;;;;;4930985;29;20424;-77
2022/03/17 17:47:32;;;;;;;36.90;24.43;;;7.10;96.30;;;;;;4912537;29;20488;-76
2022/03/17 17:49:57;;;;;;;39.87;26.83;;;7.10;96.30;;;;;;4912410;29;20502;-77
2022/03/17 17:52:23;;;;;;;42.97;28.83;;;7.10;96.30;;;;;;4929470;29;20909;-76
2022/03/17 17:54:48;;;;;;;36.50;26.20;;;7.30;96.30;;;;;;4912395;29;20274;-78
2022/03/17 17:57:15;;;;;;;32.70;24.53;;;7.30;96.30;;;;;;4911000;29;20564;-77
2022/03/17 17:59:40;;;;;;;38.03;26.17;;;7.30;96.30;;;;;;4913170;29;20202;-78
2022/03/17 18:02:06;;;;;;;39.93;25.60;;;7.30;96.30;;;;;;4927653;29;20439;-77
2022/03/17 18:04:32;;;;;;;40.77;26.60;;;7.40;96.30;;;;;;4912765;29;20172;-77
2022/03/17 18:06:57;;;;;;;39.77;26.67;;;7.50;96.30;;;;;;4911793;29;20420;-76
2022/03/17 18:09:23;;;;;;;35.77;25.90;;;7.50;96.30;;;;;;4910567;29;20181;-78
2022/03/17 18:11:49;;;;;;;44.47;27.80;;;7.40;96.30;;;;;;4910927;29;20212;-78
2022/03/17 18:14:14;;;;;;;31.63;24.63;;;7.40;96.30;;;;;;4910251;29;20188;-77
2022/03/17 18:16:41;;;;;;;39.33;27.10;;;7.30;96.30;;;;;;4928428;29;20191;-76
2022/03/17 18:19:07;;;;;;;38.33;26.30;;;7.20;96.30;;;;;;4928408;29;20291;-77
2022/03/17 18:21:32;;;;;;;43.53;29.63;;;7.20;96.30;;;;;;4929165;29;20451;-77
2022/03/17 18:23:59;;;;;;;48.47;35.57;;;7.10;96.30;;;;;;4911451;29;20428;-77
2022/03/17 18:26:25;;;;;;;43.40;31.37;;;7.10;96.30;;;;;;4929535;29;20199;-76